INFORMACIÓN METAR y TAF
METAR FOR LZIB
ADDS - METARS form results

(0234 UTC 03 October 2022)
Data provider http://aviationweather.gov/metar/data/
 
METAR text: LZIB 030230Z VRB02KT 9999 FEW020 SCT031 12/09 Q1018 NOSIG
Conditions at: LZIB (BRATISLAVA IVANK, SK) observed 0230 UTC 03 October 2022
Temperature: 12.0°C (54°F)
Dewpoint: 9.0°C (48°F) [RH = 82%]
Pressure (altimeter): 30.06 inches Hg (1018.0 mb)
Winds: variable direction winds at 2 MPH (2 knots; 1.0 m/s)
Visibility: 6 or more miles (10+ km)
Ceiling: at least 12,000 feet AGL
Clouds: few clouds at 2000 feet AGL
scattered clouds at 3100 feet AGL
Weather: no significant weather observed at this time

METAR text: LZIB 030200Z VRB02KT 9999 FEW018 SCT031 12/09 Q1018 NOSIG
Conditions at: LZIB (BRATISLAVA IVANK, SK) observed 0200 UTC 03 October 2022
Temperature: 12.0°C (54°F)
Dewpoint: 9.0°C (48°F) [RH = 82%]
Pressure (altimeter): 30.06 inches Hg (1018.0 mb)
Winds: variable direction winds at 2 MPH (2 knots; 1.0 m/s)
Visibility: 6 or more miles (10+ km)
Ceiling: at least 12,000 feet AGL
Clouds: few clouds at 1800 feet AGL
scattered clouds at 3100 feet AGL
Weather: no significant weather observed at this time

Forecast for: LZIB (BRATISLAVA IVANK, SK)
Text: TAF LZIB 022315Z 0300/0400 30006KT CAVOK
Forecast period: 0000 UTC 03 October 2022 to 0000 UTC 04 October 2022
Forecast type: FROM: standard forecast or significant change
Winds: from the WNW (300 degrees) at 7 MPH (6 knots; 3.1 m/s)
Visibility: 6 or more miles (10+ km)
Ceiling: unknown
Clouds: missing
Weather: NSW  (no significant weather)
Text: TEMPO 0300/0305 9999 FEW020
Forecast period: 0000 to 0500 UTC 03 October 2022
Forecast type: TEMPORARY: The following changes expected for less than half the time period
Visibility: 6 or more miles (10+ km)
Ceiling: at least 12,000 feet AGL
Clouds: few clouds at 2000 feet AGL
Weather: no significant weather forecast for this period
Text: TEMPO 0308/0316 30015G30KT
Forecast period: 0800 to 1600 UTC 03 October 2022
Forecast type: TEMPORARY: The following changes expected for less than half the time period
Winds: from the WNW (300 degrees) at 17 MPH (15 knots; 7.7 m/s)
gusting to 34 MPH (30 knots; 15.4 m/s)
Visibility: missing
Ceiling: unknown
Clouds: missing
Weather: no significant weather forecast for this period
Text: PROB40
Forecast period: 0900 to 1400 UTC 03 October 2022
Forecast type: TEMPORARY: The following changes expected for less than half the time period
Visibility: missing
Ceiling: at least 12,000 feet AGL
Clouds: scattered clouds at 2500 feet AGL
Weather: SHRA  (rain showers)

 MAPA DE AEROPUERTO

 INFORMACIÓN DE PISTA